Flight Track Log - Related Links

Times and Time Zones

All times are in EDT time to prevent confusion due to time zone crossing. See the SWA902 flight status page for this flight to view local times or setup timezone preferences in your user account.

Time Position Orientation Groundspeed Altitude Reporting Facility
EDT Latitude Longitude Course Direction KTS MPH feet Rate Location/Type
Sun 11:03:39 AM 41.8000 -87.7000 90° East 175 201 2,700  Level Chicago TRACON
Sun 11:05:13 AM 41.8014 -87.5786 89° East 202 232 5,000 890 Climbing Chicago Center
Sun 11:06:14 AM 41.8056 -87.4792 87° East 243 280 5,000 780 Level Chicago Center
Sun 11:07:16 AM 41.8094 -87.3797 87° East 261 300 6,600 2,780 Climbing Chicago Center
Sun 11:08:17 AM 41.8122 -87.2772 88° East 273 314 10,700 3,854 Climbing Chicago Center
Sun 11:09:00 AM 41.7500 -86.8533 90° East  Level FlightAware Approximate
Sun 11:09:19 AM 41.8167 -87.1667 87° East 290 334 14,500  Level Chicago Center
Sun 11:10:21 AM 41.8081 -87.0422 95° East 322 371 16,800 2,634 Climbing Chicago Center
Sun 11:11:22 AM 41.8008 -86.9064 94° East 356 410 19,900 3,220 Climbing Chicago Center
Sun 11:12:24 AM 41.7925 -86.7364 94° East 378 435 23,400 2,927 Climbing Chicago Center
Sun 11:13:25 AM 41.7828 -86.5881 95° East 395 455 25,900 2,244 Climbing Chicago Center
Sun 11:14:27 AM 41.7747 -86.4375 94° East 405 466 28,000 1,790 Climbing Chicago Center
Sun 11:15:29 AM 41.7764 -86.2794 89° East 429 494 29,600 1,610 Climbing Chicago Center
Sun 11:16:30 AM 41.8031 -86.1175 77° East 444 511 31,300 2,098 Climbing Chicago Center
Sun 11:17:32 AM 41.8306 -85.9564 77° East 442 509 33,900 1,984 Climbing Chicago Center
Sun 11:18:34 AM 41.8578 -85.7972 77° East 436 502 35,400 1,415 Climbing Chicago Center
Sun 11:19:35 AM 41.8850 -85.6350 77° East 441 507 36,800 1,268 Climbing Chicago Center
Sun 11:20:37 AM 41.9119 -85.4703 78° East 445 512 38,000 1,008 Climbing Chicago Center
Sun 11:21:46 AM 41.9497 -85.2658 76° East 459 528 39,000 469 Climbing Cleveland Center
Sun 11:22:45 AM 41.9522 -85.0986 89° East 459 528 39,000  Level Cleveland Center
Sun 11:23:46 AM 41.9528 -84.9253 90° East 459 528 39,000  Level Cleveland Center
Sun 11:24:46 AM 41.9528 -84.7578 90° East 459 528 39,000  Level Cleveland Center
Sun 11:25:46 AM 41.9608 -84.5906 86° East 459 528 39,000  Level Cleveland Center
Sun 11:26:45 AM 41.9792 -84.4186 82° East 459 528 39,000  Level Cleveland Center
Sun 11:27:46 AM 41.9936 -84.2350 84° East 459 528 39,000  Level Cleveland Center
Sun 11:28:45 AM 42.0114 -84.0656 82° East 454 522 39,000  Level Cleveland Center
Sun 11:29:45 AM 42.0267 -83.8986 83° East 454 522 39,000  Level Cleveland Center
Sun 11:30:46 AM 42.0419 -83.7286 83° East 454 522 39,000  Level Cleveland Center
Sun 11:31:45 AM 42.0611 -83.5592 81° East 454 522 39,000  Level Cleveland Center
Sun 11:32:46 AM 42.0778 -83.3892 82° East 459 528 39,000  Level Cleveland Center
Sun 11:33:46 AM 42.0922 -83.2219 83° East 459 528 39,000  Level Cleveland Center
Sun 11:34:45 AM 42.1064 -83.0544 83° East 459 528 39,000  Level Cleveland Center
Sun 11:35:45 AM 42.1225 -82.8817 83° East 459 528 39,000  Level Cleveland Center
Sun 11:36:46 AM 42.1381 -82.7142 83° East 459 528 39,000  Level Cleveland Center
Sun 11:37:45 AM 42.1517 -82.5492 84° East 459 528 39,000  Level Cleveland Center
Sun 11:38:45 AM 42.1669 -82.3789 83° East 454 522 39,000  Level Cleveland Center
Sun 11:39:46 AM 42.1797 -82.2083 84° East 454 522 39,000  Level Cleveland Center
Sun 11:40:46 AM 42.1944 -82.0517 83° East 462 532 39,000  Level Cleveland Center
Sun 11:41:45 AM 42.2069 -81.8669 85° East 462 532 39,000  Level Cleveland Center
Sun 11:42:46 AM 42.2233 -81.6964 83° East 462 532 39,000  Level Cleveland Center
Sun 11:43:46 AM 42.2353 -81.5253 85° East 462 532 39,000  Level Cleveland Center
Sun 11:44:45 AM 42.2492 -81.3517 84° East 462 532 39,000  Level Cleveland Center
Sun 11:45:45 AM 42.2628 -81.1781 84° East 462 532 39,000  Level Cleveland Center
Sun 11:46:45 AM 42.2761 -81.0014 84° East 462 532 39,000  Level Cleveland Center
Sun 11:47:46 AM 42.2892 -80.8244 84° East 467 537 39,000  Level Cleveland Center
Sun 11:48:46 AM 42.2997 -80.6703 85° East 467 537 39,000 353 Level Cleveland Center
Sun 11:49:45 AM 42.3122 -80.4906 85° East 467 537 39,700 1,008 Climbing Cleveland Center
Sun 11:50:45 AM 42.3222 -80.3136 86° East 467 537 41,000 650 Climbing Cleveland Center
Sun 11:51:45 AM 42.3344 -80.1422 84° East 462 532 41,000  Level Cleveland Center
Sun 11:52:46 AM 42.3439 -79.9681 86° East 462 532 41,000  Level Cleveland Center
Sun 11:53:45 AM 42.3553 -79.7964 85° East 462 532 41,000  Level Cleveland Center
Sun 11:54:45 AM 42.3667 -79.6192 85° East 462 532 41,000  Level Cleveland Center
Sun 11:55:45 AM 42.3775 -79.4506 85° East 462 532 41,000  Level Cleveland Center
Sun 11:56:45 AM 42.3861 -79.2789 86° East 462 532 41,000  Level Cleveland Center
Sun 11:57:45 AM 42.3967 -79.1100 85° East 462 532 41,000  Level Cleveland Center
Sun 11:58:45 AM 42.4047 -78.9411 86° East 462 532 41,000  Level Cleveland Center
Sun 11:59:46 AM 42.4167 -78.7522 85° East 462 532 41,000  Level Cleveland Center
Sun 12:00:46 PM 42.4261 -78.5803 86° East 462 532 41,000  Level Cleveland Center
Sun 12:01:46 PM 42.4336 -78.4142 86° East 462 532 41,000  Level Cleveland Center
Sun 12:02:46 PM 42.4406 -78.2394 87° East 462 532 41,000  Level Cleveland Center
Sun 12:03:46 PM 42.4494 -78.0703 86° East 462 532 41,000  Level Cleveland Center
Sun 12:04:46 PM 42.4561 -77.8956 87° East 462 532 41,000  Level Cleveland Center
Sun 12:05:46 PM 42.4650 -77.7458 85° East 457 526 41,000  Level Cleveland Center
Sun 12:06:46 PM 42.4711 -77.5739 87° East 457 526 41,000  Level Cleveland Center
Sun 12:08:48 PM 42.4853 -77.2217 87° East 475 547 41,000  Level Boston Center
Sun 12:09:48 PM 42.4925 -77.0475 87° East 469 540 41,000  Level Boston Center
Sun 12:10:48 PM 42.4969 -76.8789 88° East 459 528 41,000  Level Boston Center
Sun 12:11:48 PM 42.5036 -76.7100 87° East 453 521 41,000  Level Boston Center
Sun 12:12:48 PM 42.5097 -76.5414 87° East 448 516 41,000  Level Boston Center
Sun 12:13:48 PM 42.5031 -76.3747 93° East 448 516 41,000  Level Boston Center
Sun 12:14:48 PM 42.4928 -76.1883 94° East 448 516 41,000  Level Boston Center
Sun 12:15:48 PM 42.4817 -76.0131 95° East 448 516 41,000  Level Boston Center
Sun 12:16:48 PM 42.4703 -75.8433 95° East 448 516 41,000  Level Boston Center
Sun 12:17:48 PM 42.4589 -75.6653 95° East 453 521 41,000  Level Boston Center
Sun 12:18:48 PM 42.4469 -75.4958 95° East 453 521 41,000  Level Boston Center
Sun 12:19:48 PM 42.4367 -75.3267 95° East 458 527 41,000 -800 Level Boston Center
Sun 12:20:48 PM 42.4244 -75.1489 95° East 463 533 39,400 -2,050 Descending Boston Center
Sun 12:21:48 PM 42.4136 -74.9767 95° East 463 533 36,900 -2,600 Descending Boston Center
Sun 12:22:48 PM 42.3989 -74.7906 96° East 476 548 34,200 -2,500 Descending Boston Center
Sun 12:23:48 PM 42.3839 -74.6044 96° East 492 566 31,900 -2,300 Descending Boston Center
Sun 12:24:48 PM 42.3747 -74.4242 94° East 492 566 29,600 -1,500 Descending Boston Center
Sun 12:25:48 PM 42.3608 -74.2581 96° East 470 541 28,900 -850 Descending Boston Center
Sun 12:26:48 PM 42.3469 -74.0806 96° East 464 534 27,900 -1,000 Descending Boston Center
Sun 12:27:48 PM 42.3347 -73.9117 96° East 464 534 26,900 -1,000 Descending Boston Center
Sun 12:28:48 PM 42.3200 -73.7514 97° East 449 517 25,900 -1,000 Descending Boston Center
Sun 12:29:48 PM 42.3111 -73.5967 94° East 454 522 24,900 -1,000 Descending Boston Center
Sun 12:30:48 PM 42.2981 -73.4394 96° East 438 504 23,900 -1,000 Descending Boston Center
Sun 12:31:48 PM 42.2806 -73.2764 98° East 418 481 22,900 -1,000 Descending Boston Center
Sun 12:32:48 PM 42.2544 -73.1272 103° East 410 472 21,900 -1,000 Descending Boston Center
Sun 12:33:48 PM 42.1781 -73.0117 132° Southeast 397 457 20,900 -1,000 Descending Boston Center
Sun 12:34:48 PM 42.0994 -72.9072 135° Southeast 397 457 19,900 -1,000 Descending Boston Center
Sun 12:35:48 PM 42.0247 -72.8061 135° Southeast 396 456 18,900 -950 Descending Boston Center
Sun 12:36:48 PM 41.9561 -72.7108 134° Southeast 396 456 18,000 -450 Descending Boston Center
Sun 12:37:48 PM 41.8897 -72.5964 128° Southeast 390 449 18,000 -700 Level Boston Center
Sun 12:38:48 PM 41.8231 -72.4764 127° Southeast 380 437 16,600 -1,481 Descending Boston Center
Sun 12:39:05 PM 41.8044 -72.4400 124° Southeast 377 434 16,100 -2,000 Descending Boston Center
Sun 12:39:48 PM 41.7669 -72.3761 128° Southeast 374 430 14,600 -2,108 Descending Boston Center
Sun 12:40:19 PM 41.7292 -72.3122 128° Southeast 364 419 13,500 -1,900 Descending Boston Center
Sun 12:40:48 PM 41.7106 -72.2706 121° Southeast 366 421 12,700 -2,200 Descending Boston Center
Sun 12:41:19 PM 41.6686 -72.2039 130° Southeast 351 404 11,300 -1,600 Descending Boston Center
Sun 12:41:48 PM 41.6456 -72.1539 122° Southeast 361 415 11,100 -269 Descending Boston Center
Sun 12:42:26 PM 41.6100 -72.0986 131° Southeast 327 376 11,000 -100 Descending Boston Center
Sun 12:42:48 PM 41.5975 -72.0708 121° Southeast 335 386 11,000 -896 Level Boston Center
Sun 12:43:33 PM 41.5533 -71.9906 126° Southeast 306 352 10,000 -1,500 Descending Boston Center
Sun 12:44:40 PM 41.5258 -71.8800 108° East 282 325 8,200 -1,525 Descending Boston Center
Sun 12:45:35 PM 41.5442 -71.7883 75° East 285 328 6,900 -1,475 Descending Boston Center
Sun 12:46:42 PM 41.5789 -71.6825 66° East 274 315 5,200 -891 Descending Boston Center
Sun 12:47:43 PM 41.6389 -71.6289 34° Northeast 268 308 5,000 -52 Descending Boston Center
Sun 12:48:38 PM 41.7011 -71.5836 29° Northeast 264 304 5,100  Climbing Boston Center
Sun 12:49:39 PM 41.7653 -71.5300 32° Northeast 272 313 5,000 -492 Descending Boston Center
Sun 12:50:40 PM 41.8211 -71.4847 31° Northeast 244 281 4,100 -934 Descending Boston Center
Sun 12:51:41 PM 41.8769 -71.4308 36° Northeast 244 281 3,100 -492 Descending Boston Center
Sun 12:52:42 PM 41.8492 -71.3617 118° Southeast 232 267 3,100 -246 Level Boston Center
Sun 12:53:43 PM 41.7992 -71.3653 183° South 172 198 2,600 -984 Descending Boston Center
Sun 12:54:44 PM 41.7683 -71.3936 214° Southwest 142 163 1,100 -1,145 Descending Boston Center
Sun 12:55:33 PM 41.7456 -71.4106 209° Southwest 130 150 500 -735 Descending Boston Center

Login

Don't have an account? Register now (free) for customized features, flight alerts, and more!